Tropical Cyclones
[Index]
Main Index Home Page Stock Weather Photos Extreme Storms Discussion Storm News and Storm Chasing Reports Tropical Cyclones / Hurricanes / Typhoons Weather Data and Links Wild Fires / Bushfires Weather Observation Techniques Weather Picture Catalogue Tornado Pictures and Reports Stock Video Footage and DVDs for sale
Season 2003-2004 Tropical Cyclone CELA Track Map
Season 2003-2004 Summaries (Operational Data): [AU] [SIO] [SPAC] [SH]
<<- Previous TC | 2003-2004 Season | Next TC ->>

click for intensity scale information  Lat/long Grid: Show Hide

 Date Labels: Show Hide

Operational Tropical Cyclone Data : JTWC Advisories

Name: CELA
Number: 0403

05 Dec 2003 06:00 UTC to 21 Dec 2003 12:00 UTC

    date/time    lat    long     hPa   cat  kts
2003-12-05 06   11.5    62.3    1000         30          
2003-12-05 12   11.5    61.7    1000         30          
2003-12-05 18   11.9    61.1     999         25          
2003-12-06 00   11.9    60.5     999         25          
2003-12-06 06   11.9    60.5    1000         25          
2003-12-06 12   12.0    60.0    1000         25          
2003-12-06 18   12.2    59.6    1000         30          
2003-12-07 00   12.8    58.6     999         30          
2003-12-07 06   12.9    57.8     997         30          
2003-12-07 12   13.1    57.4     997         30          
2003-12-07 18   13.3    57.1     997         30          
2003-12-08 00   13.7    56.2     996         30          
2003-12-08 06   13.6    55.0     994    1    35          
2003-12-08 12   13.4    54.0     994    1    40          
2003-12-08 18   13.5    53.4     989    1    40          
2003-12-09 00   13.5    52.8     986    1    45          
2003-12-09 06   12.9    51.4     990    1    40          
2003-12-09 12   13.1    50.1     992    1    35          
2003-12-09 18   13.2    49.8     995         30          
2003-12-10 00   13.3    48.9    1000         30          
2003-12-10 06   13.5    48.0    1002         30          
2003-12-10 12   15.5    45.0    1005         20          
2003-12-10 18   15.6    44.4    1005         20          
2003-12-11 00   16.1    44.0    1003         20          
2003-12-11 06   15.8    43.6                             
2003-12-11 12   16.0    44.2    1003         25          
2003-12-11 18   15.7    44.0    1003         25          
2003-12-12 00   15.5    44.2    1000         25          
2003-12-12 06   16.2    44.2    1002         25          
2003-12-12 12   16.5    44.3    1002         25          
2003-12-12 18   16.4    44.1    1003         25          
2003-12-13 00   16.5    43.8    1002         25          
2003-12-13 06   16.5    43.8     999         25          
2003-12-13 12   16.0    42.7    1001         25          
2003-12-13 18   16.4    42.8    1000         25          
2003-12-14 00   16.7    42.1     999         30          
2003-12-14 06   16.9    41.7     997         30          
2003-12-14 12   17.5    41.9     994    1    35          
2003-12-14 18   18.5    41.6     994    1    35          
2003-12-15 00   19.0    41.1     994    1    35          
2003-12-15 06   19.7    41.2     991    1    35          
2003-12-15 12   20.4    41.2     984    2    50          
2003-12-15 18   20.6    41.1     984    2    50          
2003-12-16 00   20.7    41.2     985    2    50          
2003-12-16 06   20.7    41.7     972    2    60          
2003-12-16 12   20.9    41.7     970    3    65          
2003-12-16 18   21.2    41.9     970    3    65          
2003-12-17 00   21.2    41.5     970    3    65          
2003-12-17 06   21.5    41.0     976    2    55          
2003-12-17 12   22.5    40.2     985    2    50          
2003-12-17 18   23.3    39.4     978    2    60          
2003-12-18 00   23.7    39.3     978    2    60          
2003-12-18 06   24.0    39.0     968    3    65          
2003-12-18 12   24.2    39.0     970    3    65          
2003-12-18 18   24.6    39.5     970    3    65          
2003-12-19 00   24.8    40.2     970    3    65          
2003-12-19 06   24.9    41.6     975    2    60          
2003-12-19 12   25.5    42.2     975    2    60          
2003-12-19 18   26.2    42.9     975    2    60          
2003-12-20 00   27.3    42.5     975    2    60          
2003-12-20 06   27.5    42.5     980    2    60          
2003-12-20 12   29.1    42.4     982    2    55          
2003-12-20 18   31.0    42.0     985    2    50          
2003-12-21 00   32.8    42.0     990    1    40          
2003-12-21 06   34.5    43.9     992    1    40          
2003-12-21 12   36.2    46.8     992    1    40          
Winds are 10-min average.

Tropical cyclone tracks developed by Michael Bath using operational warnings and advisories and Google Maps.


[Australian Severe Weather index] [Copyright Notice] [Email Contacts] [Search This Site] [Privacy Policy]
Document: tropical_cyclone_cela.htm Updated: 28 May 2013